sensor_id;sensor_type;location;lat;lon;timestamp;temperature;humidity
55064;DHT22;40963;52.168;21.296;2023-04-15T00:02:21;10.70;99.90
55064;DHT22;40963;52.168;21.296;2023-04-15T00:04:47;10.70;99.90
55064;DHT22;40963;52.168;21.296;2023-04-15T00:07:13;10.70;99.90
55064;DHT22;40963;52.168;21.296;2023-04-15T00:09:42;10.70;99.90
55064;DHT22;40963;52.168;21.296;2023-04-15T00:12:10;10.70;99.90
55064;DHT22;40963;52.168;21.296;2023-04-15T00:14:36;10.70;99.90
55064;DHT22;40963;52.168;21.296;2023-04-15T00:17:02;10.70;99.90
55064;DHT22;40963;52.168;21.296;2023-04-15T00:19:29;10.70;99.90
55064;DHT22;40963;52.168;21.296;2023-04-15T00:21:55;10.70;99.90
55064;DHT22;40963;52.168;21.296;2023-04-15T00:24:21;10.70;99.90
55064;DHT22;40963;52.168;21.296;2023-04-15T00:26:47;10.70;99.90
55064;DHT22;40963;52.168;21.296;2023-04-15T00:29:13;10.60;99.90
55064;DHT22;40963;52.168;21.296;2023-04-15T00:31:39;10.60;99.90
55064;DHT22;40963;52.168;21.296;2023-04-15T00:34:05;10.60;99.90
55064;DHT22;40963;52.168;21.296;2023-04-15T00:36:31;10.60;99.90
55064;DHT22;40963;52.168;21.296;2023-04-15T00:38:58;10.60;99.90
55064;DHT22;40963;52.168;21.296;2023-04-15T00:41:23;10.60;99.90
55064;DHT22;40963;52.168;21.296;2023-04-15T00:43:50;10.60;99.90
55064;DHT22;40963;52.168;21.296;2023-04-15T00:46:16;10.50;99.90
55064;DHT22;40963;52.168;21.296;2023-04-15T00:48:43;10.50;99.90
55064;DHT22;40963;52.168;21.296;2023-04-15T00:51:10;10.50;99.90
55064;DHT22;40963;52.168;21.296;2023-04-15T00:53:36;10.50;99.90
55064;DHT22;40963;52.168;21.296;2023-04-15T00:56:01;10.50;99.90
55064;DHT22;40963;52.168;21.296;2023-04-15T00:58:27;10.40;99.90
55064;DHT22;40963;52.168;21.296;2023-04-15T01:00:54;10.40;99.90
55064;DHT22;40963;52.168;21.296;2023-04-15T01:03:20;10.40;99.90
55064;DHT22;40963;52.168;21.296;2023-04-15T01:05:46;10.30;99.90
55064;DHT22;40963;52.168;21.296;2023-04-15T01:08:12;10.30;99.90
55064;DHT22;40963;52.168;21.296;2023-04-15T01:10:38;10.30;99.90
55064;DHT22;40963;52.168;21.296;2023-04-15T01:13:04;10.30;99.90
55064;DHT22;40963;52.168;21.296;2023-04-15T01:15:30;10.30;99.90
55064;DHT22;40963;52.168;21.296;2023-04-15T01:17:57;10.30;99.90
55064;DHT22;40963;52.168;21.296;2023-04-15T01:20:23;10.30;99.90
55064;DHT22;40963;52.168;21.296;2023-04-15T01:22:49;10.30;99.90
55064;DHT22;40963;52.168;21.296;2023-04-15T01:25:24;10.30;99.90
55064;DHT22;40963;52.168;21.296;2023-04-15T01:27:51;10.30;99.90
55064;DHT22;40963;52.168;21.296;2023-04-15T01:30:17;10.30;99.90
55064;DHT22;40963;52.168;21.296;2023-04-15T01:32:42;10.30;99.90
55064;DHT22;40963;52.168;21.296;2023-04-15T01:35:08;10.20;99.90
55064;DHT22;40963;52.168;21.296;2023-04-15T01:37:34;10.20;99.90
55064;DHT22;40963;52.168;21.296;2023-04-15T01:40:01;10.20;99.90
55064;DHT22;40963;52.168;21.296;2023-04-15T01:42:27;10.20;99.90
55064;DHT22;40963;52.168;21.296;2023-04-15T01:44:53;10.10;99.90
55064;DHT22;40963;52.168;21.296;2023-04-15T01:47:19;10.10;99.90
55064;DHT22;40963;52.168;21.296;2023-04-15T01:49:45;10.10;99.90
55064;DHT22;40963;52.168;21.296;2023-04-15T01:52:11;10.10;99.90
55064;DHT22;40963;52.168;21.296;2023-04-15T01:54:36;10.00;99.90
55064;DHT22;40963;52.168;21.296;2023-04-15T01:57:02;10.00;99.90
55064;DHT22;40963;52.168;21.296;2023-04-15T01:59:29;10.00;99.90
55064;DHT22;40963;52.168;21.296;2023-04-15T02:01:55;10.00;99.90
55064;DHT22;40963;52.168;21.296;2023-04-15T02:04:21;9.90;99.90
55064;DHT22;40963;52.168;21.296;2023-04-15T02:06:47;10.00;99.90
55064;DHT22;40963;52.168;21.296;2023-04-15T02:09:13;10.00;99.90
55064;DHT22;40963;52.168;21.296;2023-04-15T02:11:38;9.90;99.90
55064;DHT22;40963;52.168;21.296;2023-04-15T02:14:04;9.90;99.90
55064;DHT22;40963;52.168;21.296;2023-04-15T02:16:31;9.90;99.90
55064;DHT22;40963;52.168;21.296;2023-04-15T02:18:57;9.90;99.90
55064;DHT22;40963;52.168;21.296;2023-04-15T02:21:22;9.90;99.90
55064;DHT22;40963;52.168;21.296;2023-04-15T02:23:48;9.90;99.90
55064;DHT22;40963;52.168;21.296;2023-04-15T02:26:13;9.90;99.90
55064;DHT22;40963;52.168;21.296;2023-04-15T02:28:39;9.90;99.90
55064;DHT22;40963;52.168;21.296;2023-04-15T02:31:06;9.90;99.90
55064;DHT22;40963;52.168;21.296;2023-04-15T02:33:32;9.90;99.90
55064;DHT22;40963;52.168;21.296;2023-04-15T02:35:57;9.90;99.90
55064;DHT22;40963;52.168;21.296;2023-04-15T02:38:23;9.90;99.90
55064;DHT22;40963;52.168;21.296;2023-04-15T02:40:49;9.90;99.90
55064;DHT22;40963;52.168;21.296;2023-04-15T02:43:15;9.90;99.90
55064;DHT22;40963;52.168;21.296;2023-04-15T02:45:45;9.90;99.90
55064;DHT22;40963;52.168;21.296;2023-04-15T02:48:11;9.90;99.90
55064;DHT22;40963;52.168;21.296;2023-04-15T02:50:37;9.80;99.90
55064;DHT22;40963;52.168;21.296;2023-04-15T02:53:06;9.80;99.90
55064;DHT22;40963;52.168;21.296;2023-04-15T02:55:31;9.80;99.90
55064;DHT22;40963;52.168;21.296;2023-04-15T02:57:57;9.80;99.90
55064;DHT22;40963;52.168;21.296;2023-04-15T03:00:25;9.70;99.90
55064;DHT22;40963;52.168;21.296;2023-04-15T03:02:51;9.70;99.90
55064;DHT22;40963;52.168;21.296;2023-04-15T03:05:21;9.70;99.90
55064;DHT22;40963;52.168;21.296;2023-04-15T03:07:50;9.70;99.90
55064;DHT22;40963;52.168;21.296;2023-04-15T03:10:16;9.70;99.90
55064;DHT22;40963;52.168;21.296;2023-04-15T03:12:41;9.70;99.90
55064;DHT22;40963;52.168;21.296;2023-04-15T03:15:07;9.70;99.90
55064;DHT22;40963;52.168;21.296;2023-04-15T03:17:33;9.60;99.90
55064;DHT22;40963;52.168;21.296;2023-04-15T03:20:00;9.60;99.90
55064;DHT22;40963;52.168;21.296;2023-04-15T03:22:26;9.70;99.90
55064;DHT22;40963;52.168;21.296;2023-04-15T03:24:51;9.70;99.90
55064;DHT22;40963;52.168;21.296;2023-04-15T03:27:17;9.60;99.90
55064;DHT22;40963;52.168;21.296;2023-04-15T03:29:42;9.70;99.90
55064;DHT22;40963;52.168;21.296;2023-04-15T03:32:08;9.70;99.90
55064;DHT22;40963;52.168;21.296;2023-04-15T03:34:34;9.70;99.90
55064;DHT22;40963;52.168;21.296;2023-04-15T03:36:59;9.70;99.90
55064;DHT22;40963;52.168;21.296;2023-04-15T03:39:25;9.70;99.90
55064;DHT22;40963;52.168;21.296;2023-04-15T03:41:51;9.70;99.90
55064;DHT22;40963;52.168;21.296;2023-04-15T03:44:16;9.70;99.90
55064;DHT22;40963;52.168;21.296;2023-04-15T03:46:42;9.70;99.90
55064;DHT22;40963;52.168;21.296;2023-04-15T03:49:08;9.70;99.90
55064;DHT22;40963;52.168;21.296;2023-04-15T03:51:33;9.70;99.90
55064;DHT22;40963;52.168;21.296;2023-04-15T03:53:59;9.70;99.90
55064;DHT22;40963;52.168;21.296;2023-04-15T03:56:25;9.70;99.90
55064;DHT22;40963;52.168;21.296;2023-04-15T03:58:50;9.70;99.90
55064;DHT22;40963;52.168;21.296;2023-04-15T04:01:16;9.80;99.90
55064;DHT22;40963;52.168;21.296;2023-04-15T04:03:41;9.70;99.90
55064;DHT22;40963;52.168;21.296;2023-04-15T04:06:07;9.70;99.90
55064;DHT22;40963;52.168;21.296;2023-04-15T04:08:33;9.70;99.90
55064;DHT22;40963;52.168;21.296;2023-04-15T04:10:58;9.70;99.90
55064;DHT22;40963;52.168;21.296;2023-04-15T04:13:24;9.70;99.90
55064;DHT22;40963;52.168;21.296;2023-04-15T04:15:49;9.70;99.90
55064;DHT22;40963;52.168;21.296;2023-04-15T04:18:15;9.70;99.90
55064;DHT22;40963;52.168;21.296;2023-04-15T04:20:41;9.70;99.90
55064;DHT22;40963;52.168;21.296;2023-04-15T04:23:06;9.70;99.90
55064;DHT22;40963;52.168;21.296;2023-04-15T04:25:32;9.60;99.90
55064;DHT22;40963;52.168;21.296;2023-04-15T04:27:58;9.60;99.90
55064;DHT22;40963;52.168;21.296;2023-04-15T04:30:23;9.60;99.90
55064;DHT22;40963;52.168;21.296;2023-04-15T04:32:49;9.60;99.90
55064;DHT22;40963;52.168;21.296;2023-04-15T04:35:16;9.60;99.90
55064;DHT22;40963;52.168;21.296;2023-04-15T04:37:41;9.60;99.90
55064;DHT22;40963;52.168;21.296;2023-04-15T04:40:07;9.50;99.90
55064;DHT22;40963;52.168;21.296;2023-04-15T04:42:33;9.50;99.90
55064;DHT22;40963;52.168;21.296;2023-04-15T04:44:59;9.50;99.90
55064;DHT22;40963;52.168;21.296;2023-04-15T04:47:25;9.50;99.90
55064;DHT22;40963;52.168;21.296;2023-04-15T04:49:50;9.50;99.90
55064;DHT22;40963;52.168;21.296;2023-04-15T04:52:16;9.50;99.90
55064;DHT22;40963;52.168;21.296;2023-04-15T04:54:41;9.50;99.90
55064;DHT22;40963;52.168;21.296;2023-04-15T04:57:07;9.50;99.90
55064;DHT22;40963;52.168;21.296;2023-04-15T04:59:33;9.50;99.90
55064;DHT22;40963;52.168;21.296;2023-04-15T05:01:58;9.50;99.90
55064;DHT22;40963;52.168;21.296;2023-04-15T05:04:24;9.40;99.90
55064;DHT22;40963;52.168;21.296;2023-04-15T05:06:50;9.40;99.90
55064;DHT22;40963;52.168;21.296;2023-04-15T05:09:16;9.40;99.90
55064;DHT22;40963;52.168;21.296;2023-04-15T05:11:42;9.40;99.90
55064;DHT22;40963;52.168;21.296;2023-04-15T05:14:07;9.50;99.90
55064;DHT22;40963;52.168;21.296;2023-04-15T05:16:33;9.50;99.90
55064;DHT22;40963;52.168;21.296;2023-04-15T05:18:58;9.50;99.90
55064;DHT22;40963;52.168;21.296;2023-04-15T05:21:24;9.50;99.90
55064;DHT22;40963;52.168;21.296;2023-04-15T05:23:50;9.50;99.90
55064;DHT22;40963;52.168;21.296;2023-04-15T05:26:16;9.50;99.90
55064;DHT22;40963;52.168;21.296;2023-04-15T05:28:42;9.50;99.90
55064;DHT22;40963;52.168;21.296;2023-04-15T05:31:07;9.40;99.90
55064;DHT22;40963;52.168;21.296;2023-04-15T05:33:33;9.50;99.90
55064;DHT22;40963;52.168;21.296;2023-04-15T05:35:58;9.50;99.90
55064;DHT22;40963;52.168;21.296;2023-04-15T05:38:24;9.50;99.90
55064;DHT22;40963;52.168;21.296;2023-04-15T05:40:50;9.50;99.90
55064;DHT22;40963;52.168;21.296;2023-04-15T05:43:16;9.50;99.90
55064;DHT22;40963;52.168;21.296;2023-04-15T05:45:41;9.50;99.90
55064;DHT22;40963;52.168;21.296;2023-04-15T05:48:07;9.50;99.90
55064;DHT22;40963;52.168;21.296;2023-04-15T05:50:32;9.50;99.90
55064;DHT22;40963;52.168;21.296;2023-04-15T05:52:58;9.50;99.90
55064;DHT22;40963;52.168;21.296;2023-04-15T05:55:24;9.40;99.90
55064;DHT22;40963;52.168;21.296;2023-04-15T05:57:50;9.40;99.90
55064;DHT22;40963;52.168;21.296;2023-04-15T06:00:15;9.40;99.90
55064;DHT22;40963;52.168;21.296;2023-04-15T06:02:41;9.50;99.90
55064;DHT22;40963;52.168;21.296;2023-04-15T06:05:07;9.50;99.90
55064;DHT22;40963;52.168;21.296;2023-04-15T06:07:35;9.50;99.90
55064;DHT22;40963;52.168;21.296;2023-04-15T06:10:02;9.50;99.90
55064;DHT22;40963;52.168;21.296;2023-04-15T06:12:28;9.50;99.90
55064;DHT22;40963;52.168;21.296;2023-04-15T06:14:53;9.50;99.90
55064;DHT22;40963;52.168;21.296;2023-04-15T06:17:19;9.50;99.90
55064;DHT22;40963;52.168;21.296;2023-04-15T06:19:44;9.50;99.90
55064;DHT22;40963;52.168;21.296;2023-04-15T06:22:10;9.50;99.90
55064;DHT22;40963;52.168;21.296;2023-04-15T06:24:36;9.50;99.90
55064;DHT22;40963;52.168;21.296;2023-04-15T06:27:02;9.50;99.90
55064;DHT22;40963;52.168;21.296;2023-04-15T06:29:27;9.50;99.90
55064;DHT22;40963;52.168;21.296;2023-04-15T06:31:53;9.50;99.90
55064;DHT22;40963;52.168;21.296;2023-04-15T06:34:20;9.50;99.90
55064;DHT22;40963;52.168;21.296;2023-04-15T06:36:46;9.50;99.90
55064;DHT22;40963;52.168;21.296;2023-04-15T06:39:11;9.40;99.90
55064;DHT22;40963;52.168;21.296;2023-04-15T06:41:37;9.40;99.90
55064;DHT22;40963;52.168;21.296;2023-04-15T06:44:03;9.40;99.90
55064;DHT22;40963;52.168;21.296;2023-04-15T06:46:28;9.40;99.90
55064;DHT22;40963;52.168;21.296;2023-04-15T06:48:54;9.40;99.90
55064;DHT22;40963;52.168;21.296;2023-04-15T06:51:20;9.40;99.90
55064;DHT22;40963;52.168;21.296;2023-04-15T06:53:45;9.40;99.90
55064;DHT22;40963;52.168;21.296;2023-04-15T06:56:11;9.40;99.90
55064;DHT22;40963;52.168;21.296;2023-04-15T06:58:37;9.40;99.90
55064;DHT22;40963;52.168;21.296;2023-04-15T07:01:03;9.40;99.90
55064;DHT22;40963;52.168;21.296;2023-04-15T07:03:28;9.40;99.90
55064;DHT22;40963;52.168;21.296;2023-04-15T07:05:54;9.40;99.90
55064;DHT22;40963;52.168;21.296;2023-04-15T07:08:20;9.40;99.90
55064;DHT22;40963;52.168;21.296;2023-04-15T07:10:46;9.50;99.90
55064;DHT22;40963;52.168;21.296;2023-04-15T07:13:12;9.50;99.90
55064;DHT22;40963;52.168;21.296;2023-04-15T07:15:38;9.50;99.90
55064;DHT22;40963;52.168;21.296;2023-04-15T07:18:03;9.50;99.90
55064;DHT22;40963;52.168;21.296;2023-04-15T07:20:29;9.40;99.90
55064;DHT22;40963;52.168;21.296;2023-04-15T07:22:55;9.50;99.90
55064;DHT22;40963;52.168;21.296;2023-04-15T07:25:20;9.50;99.90
55064;DHT22;40963;52.168;21.296;2023-04-15T07:27:46;9.50;99.90
55064;DHT22;40963;52.168;21.296;2023-04-15T07:30:12;9.50;99.90
55064;DHT22;40963;52.168;21.296;2023-04-15T07:32:37;9.50;99.90
55064;DHT22;40963;52.168;21.296;2023-04-15T07:35:03;9.50;99.90
55064;DHT22;40963;52.168;21.296;2023-04-15T07:37:29;9.50;99.90
55064;DHT22;40963;52.168;21.296;2023-04-15T07:39:55;9.50;99.90
55064;DHT22;40963;52.168;21.296;2023-04-15T07:42:21;9.50;99.90
55064;DHT22;40963;52.168;21.296;2023-04-15T07:44:46;9.50;99.90
55064;DHT22;40963;52.168;21.296;2023-04-15T07:47:12;9.50;99.90
55064;DHT22;40963;52.168;21.296;2023-04-15T07:49:38;9.50;99.90
55064;DHT22;40963;52.168;21.296;2023-04-15T07:52:03;9.50;99.90
55064;DHT22;40963;52.168;21.296;2023-04-15T07:54:29;9.50;99.90
55064;DHT22;40963;52.168;21.296;2023-04-15T07:56:54;9.50;99.90
55064;DHT22;40963;52.168;21.296;2023-04-15T07:59:20;9.50;99.90
55064;DHT22;40963;52.168;21.296;2023-04-15T08:01:47;9.60;99.90
55064;DHT22;40963;52.168;21.296;2023-04-15T08:04:13;9.60;99.90
55064;DHT22;40963;52.168;21.296;2023-04-15T08:06:39;9.60;99.90
55064;DHT22;40963;52.168;21.296;2023-04-15T08:09:05;9.60;99.90
55064;DHT22;40963;52.168;21.296;2023-04-15T08:11:31;9.60;99.90
55064;DHT22;40963;52.168;21.296;2023-04-15T08:13:57;9.60;99.90
55064;DHT22;40963;52.168;21.296;2023-04-15T08:16:24;9.70;99.90
55064;DHT22;40963;52.168;21.296;2023-04-15T08:18:52;9.70;99.90
55064;DHT22;40963;52.168;21.296;2023-04-15T08:21:18;9.80;99.90
55064;DHT22;40963;52.168;21.296;2023-04-15T08:23:46;9.80;99.90
55064;DHT22;40963;52.168;21.296;2023-04-15T08:26:11;9.80;99.90
55064;DHT22;40963;52.168;21.296;2023-04-15T08:28:38;9.90;99.90
55064;DHT22;40963;52.168;21.296;2023-04-15T08:31:05;9.90;99.90
55064;DHT22;40963;52.168;21.296;2023-04-15T08:33:30;9.90;99.90
55064;DHT22;40963;52.168;21.296;2023-04-15T08:35:56;9.90;99.90
55064;DHT22;40963;52.168;21.296;2023-04-15T08:38:22;9.90;99.90
55064;DHT22;40963;52.168;21.296;2023-04-15T08:40:48;10.00;99.90
55064;DHT22;40963;52.168;21.296;2023-04-15T08:43:26;10.00;99.90
55064;DHT22;40963;52.168;21.296;2023-04-15T08:45:53;10.00;99.90
55064;DHT22;40963;52.168;21.296;2023-04-15T08:48:20;10.10;99.90
55064;DHT22;40963;52.168;21.296;2023-04-15T08:50:47;10.10;99.90
55064;DHT22;40963;52.168;21.296;2023-04-15T08:53:13;10.10;99.90
55064;DHT22;40963;52.168;21.296;2023-04-15T08:55:49;10.20;99.90
55064;DHT22;40963;52.168;21.296;2023-04-15T08:58:15;10.20;99.90
55064;DHT22;40963;52.168;21.296;2023-04-15T09:00:41;10.10;99.90
55064;DHT22;40963;52.168;21.296;2023-04-15T09:03:07;10.20;99.90
55064;DHT22;40963;52.168;21.296;2023-04-15T09:05:34;10.20;99.90
55064;DHT22;40963;52.168;21.296;2023-04-15T09:08:01;10.20;99.90
55064;DHT22;40963;52.168;21.296;2023-04-15T09:10:28;10.20;99.90
55064;DHT22;40963;52.168;21.296;2023-04-15T09:12:54;10.20;99.90
55064;DHT22;40963;52.168;21.296;2023-04-15T09:15:20;10.20;99.90
55064;DHT22;40963;52.168;21.296;2023-04-15T09:17:46;10.20;99.90
55064;DHT22;40963;52.168;21.296;2023-04-15T09:20:14;10.20;99.90
55064;DHT22;40963;52.168;21.296;2023-04-15T09:22:41;10.20;99.90
55064;DHT22;40963;52.168;21.296;2023-04-15T09:27:58;10.20;99.90
55064;DHT22;40963;52.168;21.296;2023-04-15T09:30:25;10.20;99.90
55064;DHT22;40963;52.168;21.296;2023-04-15T09:32:59;10.30;99.90
55064;DHT22;40963;52.168;21.296;2023-04-15T09:35:26;10.30;99.90
55064;DHT22;40963;52.168;21.296;2023-04-15T09:38:00;10.30;99.90
55064;DHT22;40963;52.168;21.296;2023-04-15T09:40:40;10.40;99.90
55064;DHT22;40963;52.168;21.296;2023-04-15T09:43:07;10.40;99.90
55064;DHT22;40963;52.168;21.296;2023-04-15T09:45:38;10.40;99.90
55064;DHT22;40963;52.168;21.296;2023-04-15T09:48:21;10.40;99.90
55064;DHT22;40963;52.168;21.296;2023-04-15T09:50:47;10.50;99.90
55064;DHT22;40963;52.168;21.296;2023-04-15T09:53:21;10.50;99.90
55064;DHT22;40963;52.168;21.296;2023-04-15T09:55:58;10.50;99.90
55064;DHT22;40963;52.168;21.296;2023-04-15T09:58:28;10.60;99.90
55064;DHT22;40963;52.168;21.296;2023-04-15T10:00:55;10.60;99.90
55064;DHT22;40963;52.168;21.296;2023-04-15T10:03:23;10.50;99.90
55064;DHT22;40963;52.168;21.296;2023-04-15T10:05:51;10.60;99.90
55064;DHT22;40963;52.168;21.296;2023-04-15T10:08:18;10.60;99.90
55064;DHT22;40963;52.168;21.296;2023-04-15T10:10:46;10.50;99.90
55064;DHT22;40963;52.168;21.296;2023-04-15T10:13:17;10.60;99.90
55064;DHT22;40963;52.168;21.296;2023-04-15T10:15:44;10.60;99.90
55064;DHT22;40963;52.168;21.296;2023-04-15T10:18:15;10.60;99.90
55064;DHT22;40963;52.168;21.296;2023-04-15T10:20:43;10.60;99.90
55064;DHT22;40963;52.168;21.296;2023-04-15T10:23:08;10.60;99.90
55064;DHT22;40963;52.168;21.296;2023-04-15T10:25:34;10.60;99.90
55064;DHT22;40963;52.168;21.296;2023-04-15T10:28:01;10.60;99.90
55064;DHT22;40963;52.168;21.296;2023-04-15T10:30:27;10.60;99.90
55064;DHT22;40963;52.168;21.296;2023-04-15T10:32:54;10.60;99.90
55064;DHT22;40963;52.168;21.296;2023-04-15T10:35:21;10.70;99.90
55064;DHT22;40963;52.168;21.296;2023-04-15T10:37:47;10.60;99.90
55064;DHT22;40963;52.168;21.296;2023-04-15T10:40:29;10.60;99.90
55064;DHT22;40963;52.168;21.296;2023-04-15T10:43:02;10.70;99.90
55064;DHT22;40963;52.168;21.296;2023-04-15T10:45:34;10.70;99.90
55064;DHT22;40963;52.168;21.296;2023-04-15T10:48:06;10.70;99.90
55064;DHT22;40963;52.168;21.296;2023-04-15T10:50:32;10.70;99.90
55064;DHT22;40963;52.168;21.296;2023-04-15T10:52:58;10.80;99.90
55064;DHT22;40963;52.168;21.296;2023-04-15T10:55:31;10.80;99.90
55064;DHT22;40963;52.168;21.296;2023-04-15T10:57:59;10.80;99.90
55064;DHT22;40963;52.168;21.296;2023-04-15T11:00:29;10.80;99.90
55064;DHT22;40963;52.168;21.296;2023-04-15T11:02:57;10.80;99.90
55064;DHT22;40963;52.168;21.296;2023-04-15T11:08:04;10.90;99.90
55064;DHT22;40963;52.168;21.296;2023-04-15T11:12:59;10.90;99.90
55064;DHT22;40963;52.168;21.296;2023-04-15T11:20:51;10.80;99.90
55064;DHT22;40963;52.168;21.296;2023-04-15T11:23:41;10.80;99.90
55064;DHT22;40963;52.168;21.296;2023-04-15T11:26:11;10.70;99.90
55064;DHT22;40963;52.168;21.296;2023-04-15T11:28:44;10.70;99.90
55064;DHT22;40963;52.168;21.296;2023-04-15T11:31:17;10.70;99.90
55064;DHT22;40963;52.168;21.296;2023-04-15T11:33:54;10.70;99.90
55064;DHT22;40963;52.168;21.296;2023-04-15T11:36:22;10.60;99.90
55064;DHT22;40963;52.168;21.296;2023-04-15T11:38:48;10.70;99.90
55064;DHT22;40963;52.168;21.296;2023-04-15T11:41:14;10.80;99.90
55064;DHT22;40963;52.168;21.296;2023-04-15T11:43:40;10.90;99.90
55064;DHT22;40963;52.168;21.296;2023-04-15T11:46:05;11.00;99.90
55064;DHT22;40963;52.168;21.296;2023-04-15T11:48:34;11.10;99.90
55064;DHT22;40963;52.168;21.296;2023-04-15T11:51:02;11.10;99.90
55064;DHT22;40963;52.168;21.296;2023-04-15T11:53:44;11.10;99.90
55064;DHT22;40963;52.168;21.296;2023-04-15T11:56:19;11.10;99.90
55064;DHT22;40963;52.168;21.296;2023-04-15T11:58:46;11.00;99.90
55064;DHT22;40963;52.168;21.296;2023-04-15T12:01:12;11.00;99.90
55064;DHT22;40963;52.168;21.296;2023-04-15T12:03:40;11.00;99.90
55064;DHT22;40963;52.168;21.296;2023-04-15T12:06:18;11.10;99.90
55064;DHT22;40963;52.168;21.296;2023-04-15T12:13:58;11.30;99.90
55064;DHT22;40963;52.168;21.296;2023-04-15T12:16:24;11.30;99.90
55064;DHT22;40963;52.168;21.296;2023-04-15T12:18:53;11.30;99.90
55064;DHT22;40963;52.168;21.296;2023-04-15T12:21:22;11.30;99.90
55064;DHT22;40963;52.168;21.296;2023-04-15T12:23:50;11.30;99.90
55064;DHT22;40963;52.168;21.296;2023-04-15T12:26:16;11.30;99.90
55064;DHT22;40963;52.168;21.296;2023-04-15T12:28:42;11.30;99.90
55064;DHT22;40963;52.168;21.296;2023-04-15T12:31:09;11.20;99.90
55064;DHT22;40963;52.168;21.296;2023-04-15T12:33:35;11.20;99.90
55064;DHT22;40963;52.168;21.296;2023-04-15T12:36:02;11.20;99.90
55064;DHT22;40963;52.168;21.296;2023-04-15T12:38:29;11.20;99.90
55064;DHT22;40963;52.168;21.296;2023-04-15T12:40:56;11.20;99.90
55064;DHT22;40963;52.168;21.296;2023-04-15T12:43:22;11.20;99.90
55064;DHT22;40963;52.168;21.296;2023-04-15T12:45:48;11.30;99.90
55064;DHT22;40963;52.168;21.296;2023-04-15T12:48:13;11.30;99.90
55064;DHT22;40963;52.168;21.296;2023-04-15T12:50:39;11.30;99.90
55064;DHT22;40963;52.168;21.296;2023-04-15T12:53:05;11.30;99.90
55064;DHT22;40963;52.168;21.296;2023-04-15T12:55:30;11.30;99.90
55064;DHT22;40963;52.168;21.296;2023-04-15T12:57:56;11.30;99.90
55064;DHT22;40963;52.168;21.296;2023-04-15T13:00:22;11.20;99.90
55064;DHT22;40963;52.168;21.296;2023-04-15T13:02:47;11.20;99.90
55064;DHT22;40963;52.168;21.296;2023-04-15T13:05:13;11.20;99.90
55064;DHT22;40963;52.168;21.296;2023-04-15T13:07:40;11.20;99.90
55064;DHT22;40963;52.168;21.296;2023-04-15T13:10:06;11.20;99.90
55064;DHT22;40963;52.168;21.296;2023-04-15T13:12:32;11.30;99.90
55064;DHT22;40963;52.168;21.296;2023-04-15T13:15:02;11.30;99.90
55064;DHT22;40963;52.168;21.296;2023-04-15T13:17:28;11.30;99.90
55064;DHT22;40963;52.168;21.296;2023-04-15T13:19:54;11.40;99.90
55064;DHT22;40963;52.168;21.296;2023-04-15T13:22:19;11.50;99.90
55064;DHT22;40963;52.168;21.296;2023-04-15T13:24:45;11.50;99.90
55064;DHT22;40963;52.168;21.296;2023-04-15T13:27:11;11.50;99.90
55064;DHT22;40963;52.168;21.296;2023-04-15T13:29:37;11.50;99.90
55064;DHT22;40963;52.168;21.296;2023-04-15T13:32:03;11.50;99.90
55064;DHT22;40963;52.168;21.296;2023-04-15T13:34:29;11.50;99.90
55064;DHT22;40963;52.168;21.296;2023-04-15T13:36:55;11.60;99.90
55064;DHT22;40963;52.168;21.296;2023-04-15T13:39:20;11.60;99.90
55064;DHT22;40963;52.168;21.296;2023-04-15T13:41:46;11.60;99.90
55064;DHT22;40963;52.168;21.296;2023-04-15T13:44:12;11.70;99.90
55064;DHT22;40963;52.168;21.296;2023-04-15T13:46:39;11.70;99.90
55064;DHT22;40963;52.168;21.296;2023-04-15T13:49:06;11.70;99.90
55064;DHT22;40963;52.168;21.296;2023-04-15T13:51:32;11.70;99.90
55064;DHT22;40963;52.168;21.296;2023-04-15T13:53:57;11.70;99.90
55064;DHT22;40963;52.168;21.296;2023-04-15T13:56:23;11.70;99.90
55064;DHT22;40963;52.168;21.296;2023-04-15T13:58:48;11.80;99.90
55064;DHT22;40963;52.168;21.296;2023-04-15T14:01:14;11.90;99.90
55064;DHT22;40963;52.168;21.296;2023-04-15T14:03:40;11.90;99.90
55064;DHT22;40963;52.168;21.296;2023-04-15T14:06:06;12.00;99.90
55064;DHT22;40963;52.168;21.296;2023-04-15T14:08:32;12.10;99.90
55064;DHT22;40963;52.168;21.296;2023-04-15T14:10:57;12.10;99.90
55064;DHT22;40963;52.168;21.296;2023-04-15T14:13:23;12.00;99.90
55064;DHT22;40963;52.168;21.296;2023-04-15T14:15:48;12.00;99.90
55064;DHT22;40963;52.168;21.296;2023-04-15T14:18:14;12.00;99.90
55064;DHT22;40963;52.168;21.296;2023-04-15T14:20:40;12.00;99.90
55064;DHT22;40963;52.168;21.296;2023-04-15T14:23:06;12.00;99.90
55064;DHT22;40963;52.168;21.296;2023-04-15T14:25:31;12.00;99.90
55064;DHT22;40963;52.168;21.296;2023-04-15T14:27:57;12.10;99.90
55064;DHT22;40963;52.168;21.296;2023-04-15T14:30:22;12.10;99.90
55064;DHT22;40963;52.168;21.296;2023-04-15T14:32:48;12.10;99.90
55064;DHT22;40963;52.168;21.296;2023-04-15T14:35:13;12.20;99.90
55064;DHT22;40963;52.168;21.296;2023-04-15T14:37:39;12.20;99.90
55064;DHT22;40963;52.168;21.296;2023-04-15T14:40:05;12.20;99.90
55064;DHT22;40963;52.168;21.296;2023-04-15T14:42:31;12.20;99.90
55064;DHT22;40963;52.168;21.296;2023-04-15T14:44:57;12.20;99.90
55064;DHT22;40963;52.168;21.296;2023-04-15T14:47:22;12.20;99.90
55064;DHT22;40963;52.168;21.296;2023-04-15T14:49:48;12.10;99.90
55064;DHT22;40963;52.168;21.296;2023-04-15T14:52:14;12.20;99.90
55064;DHT22;40963;52.168;21.296;2023-04-15T14:54:39;12.20;99.90
55064;DHT22;40963;52.168;21.296;2023-04-15T14:57:05;12.10;99.90
55064;DHT22;40963;52.168;21.296;2023-04-15T14:59:31;12.10;99.90
55064;DHT22;40963;52.168;21.296;2023-04-15T15:01:57;12.10;99.90
55064;DHT22;40963;52.168;21.296;2023-04-15T15:04:23;12.10;99.90
55064;DHT22;40963;52.168;21.296;2023-04-15T15:06:48;12.10;99.90
55064;DHT22;40963;52.168;21.296;2023-04-15T15:09:14;12.10;99.90
55064;DHT22;40963;52.168;21.296;2023-04-15T15:11:39;12.00;99.90
55064;DHT22;40963;52.168;21.296;2023-04-15T15:14:05;12.00;99.90
55064;DHT22;40963;52.168;21.296;2023-04-15T15:16:31;11.90;99.90
55064;DHT22;40963;52.168;21.296;2023-04-15T15:18:56;11.90;99.90
55064;DHT22;40963;52.168;21.296;2023-04-15T15:21:22;11.90;99.90
55064;DHT22;40963;52.168;21.296;2023-04-15T15:23:48;11.80;99.90
55064;DHT22;40963;52.168;21.296;2023-04-15T15:26:13;11.80;99.90
55064;DHT22;40963;52.168;21.296;2023-04-15T15:28:39;11.80;99.90
55064;DHT22;40963;52.168;21.296;2023-04-15T15:31:06;11.80;99.90
55064;DHT22;40963;52.168;21.296;2023-04-15T15:33:31;11.80;99.90
55064;DHT22;40963;52.168;21.296;2023-04-15T15:35:57;11.90;99.90
55064;DHT22;40963;52.168;21.296;2023-04-15T15:38:23;11.90;99.90